Rose City, MI

2:16 PM EST on February 14, 2016 (GMT -0500)
Rose Township | | Change Station
CLOSE
Current Station
Personal Weather Station
Location: Lupton, MI
Elevation: 922 ft
Nearby Weather Stations

Elev 922 ft 44.43 °N, 84.01 °W | Updated 5 seconds ago

Partly Cloudy
Partly Cloudy
26.6 °F
Feels Like 27 °F
N
1.6
Wind Variable Wind from East
Gusts 7.6 mph

Today
High -- | Low -- °F
--% Chance of Precip.
Yesterday
High -- | Low -- °F
Precip. -- in
Pressure 30.35 in
Visibility 10.0 miles
Clouds Clear
Windchill 27 °F
Dew Point 7 °F
Humidity 42%
Rainfall 0.00 in
Snow Depth Not available.
7:38 AM 6:03 PM
Waxing Crescent, 44% visible
METAR KHTL 141853Z AUTO 17008KT 10SM CLR M10/M18 A3027 RMK AO2 SLP275 T11001178
Pressure 30.35 in
Visibility 10.0 miles
Clouds Clear
Windchill 27 °F
Dew Point 7 °F
Humidity 42%
Rainfall 0.00 in
Snow Depth Not available.
7:38 AM 6:03 PM
Waxing Crescent, 44% visible
METAR KHTL 141853Z AUTO 17008KT 10SM CLR M10/M18 A3027 RMK AO2 SLP275 T11001178

10-Day Weather Forecast

Almanac

Astronomy

Feb. 14, 2016 Rise Set
Actual Time
Civil Twilight
Nautical Twilight
Astronomical Twilight
Moon
Length of Visible Light
Length of Day
Tomorrow will be .
, % of the Moon is Illuminated

Today's Extremes

State Highs State Lows

Community

WunderPhotos

Upload Photos

1,892,875 photos uploaded!

WunderBlog® & News

Nearby

Air Quality

  Air Quality AQ Index Pollutant
Not available.

Snow Depth

Station Depth Elevation

Earthquake Activity

City Distance Mag. Time & Date
Minimum magnitude displayed is 2.5.

Coastal Water Temperatures

Place Temperature

Stations

Nearby Weather Stations

Station Location Temp. Windchill Dew Point Humidity Wind Precip. Elev Updated Type
                   

Watches & Warnings

There are currently no watches in effect.